Time;durP1;ratioP1;P1;durP2;ratioP2;P2;SDS_P1;SDS_P2;PMS_P1;PMS_P2;Temp;Humidity;BMP_temperature;BMP_pressure;BME280_temperature;BME280_humidity;BME280_pressure;Samples;Min_cycle;Max_cycle;Signal;HPM_P1;HPM_P2
2022/07/03 00:00:26;;;;;;;0.10;0.10;;;;;;;;;;5072530;28;20020;-84
2022/07/03 00:02:52;;;;;;;0.10;0.10;;;;;;;;;;5073638;28;20021;-84
2022/07/03 00:05:19;;;;;;;0.10;0.10;;;;;;;;;;5072357;28;20024;-84
2022/07/03 00:07:45;;;;;;;0.10;0.10;;;;;;;;;;5072688;28;20032;-84
2022/07/03 00:10:11;;;;;;;0.10;0.10;;;;;;;;;;5073636;28;20423;-84
2022/07/03 00:12:37;;;;;;;0.03;0.03;;;;;;;;;;5073849;28;20024;-84
2022/07/03 00:15:03;;;;;;;0.10;0.10;;;;;;;;;;5072606;28;20028;-84
2022/07/03 00:17:29;;;;;;;0.10;0.10;;;;;;;;;;5073316;28;20430;-83
2022/07/03 00:19:55;;;;;;;0.10;0.10;;;;;;;;;;5073590;28;20035;-85
2022/07/03 00:22:24;;;;;;;0.10;0.10;;;;;;;;;;5072400;28;20028;-85
2022/07/03 00:24:54;;;;;;;0.10;0.10;;;;;;;;;;5072523;28;20135;-85
2022/07/03 00:27:21;;;;;;;0.10;0.10;;;;;;;;;;5072101;28;20020;-85
2022/07/03 00:29:49;;;;;;;0.10;0.10;;;;;;;;;;5072638;28;20032;-88
2022/07/03 00:32:23;;;;;;;0.00;0.00;;;;;;;;;;5072552;28;20067;-86
2022/07/03 00:34:50;;;;;;;0.10;0.10;;;;;;;;;;5072737;28;20123;-87
2022/07/03 00:37:16;;;;;;;0.10;0.10;;;;;;;;;;5073510;28;20025;-84
2022/07/03 00:39:43;;;;;;;0.10;0.10;;;;;;;;;;5071977;28;20063;-83
2022/07/03 00:42:10;;;;;;;0.10;0.10;;;;;;;;;;5071765;28;20032;-85
2022/07/03 00:44:43;;;;;;;0.10;0.10;;;;;;;;;;5072296;28;20029;-86
2022/07/03 00:47:09;;;;;;;0.10;0.10;;;;;;;;;;5073276;28;20096;-85
2022/07/03 00:49:35;;;;;;;0.10;0.10;;;;;;;;;;5072973;28;20040;-82
2022/07/03 00:52:05;;;;;;;0.10;0.10;;;;;;;;;;5073994;28;20033;-86
2022/07/03 00:54:32;;;;;;;0.10;0.10;;;;;;;;;;5074286;28;20016;-89
2022/07/03 00:57:00;;;;;;;0.10;0.10;;;;;;;;;;5072753;28;20040;-88
2022/07/03 00:59:26;;;;;;;0.10;0.10;;;;;;;;;;5072163;28;20023;-89
2022/07/03 01:01:56;;;;;;;0.10;0.10;;;;;;;;;;5073808;28;20025;-86
2022/07/03 01:04:34;;;;;;;0.10;0.10;;;;;;;;;;5073790;28;20078;-88
2022/07/03 01:07:06;;;;;;;0.10;0.10;;;;;;;;;;5072389;28;20093;-87
2022/07/03 01:09:58;;;;;;;0.10;0.10;;;;;;;;;;5073903;28;20020;-87
2022/07/03 01:12:32;;;;;;;0.10;0.10;;;;;;;;;;5072113;28;20091;-86
2022/07/03 01:15:12;;;;;;;0.10;0.10;;;;;;;;;;5073111;28;20025;-85
2022/07/03 01:17:45;;;;;;;0.10;0.10;;;;;;;;;;5072229;28;20032;-88
2022/07/03 01:20:12;;;;;;;0.10;0.10;;;;;;;;;;5072787;28;20025;-87
2022/07/03 01:22:53;;;;;;;0.10;0.10;;;;;;;;;;5072824;28;20078;-86
2022/07/03 01:25:27;;;;;;;0.10;0.10;;;;;;;;;;5071693;28;20534;-87
2022/07/03 01:27:59;;;;;;;0.10;0.10;;;;;;;;;;5072931;28;20032;-85
2022/07/03 01:30:26;;;;;;;0.10;0.10;;;;;;;;;;5070454;28;20447;-85
2022/07/03 01:32:58;;;;;;;0.10;0.10;;;;;;;;;;5072433;28;20445;-84
2022/07/03 01:35:27;;;;;;;0.10;0.10;;;;;;;;;;5070815;28;20012;-85
2022/07/03 01:37:54;;;;;;;0.10;0.10;;;;;;;;;;5072434;28;20163;-84
2022/07/03 01:40:24;;;;;;;0.10;0.10;;;;;;;;;;5071113;28;20032;-87
2022/07/03 01:42:52;;;;;;;0.20;0.20;;;;;;;;;;5072576;28;20029;-85
2022/07/03 01:45:22;;;;;;;0.10;0.10;;;;;;;;;;5071967;28;20020;-86
2022/07/03 01:47:48;;;;;;;0.10;0.10;;;;;;;;;;5071220;28;20043;-85
2022/07/03 01:50:15;;;;;;;0.13;0.13;;;;;;;;;;5070795;28;20041;-86
2022/07/03 01:52:42;;;;;;;0.10;0.10;;;;;;;;;;5071901;28;20032;-86
2022/07/03 01:55:12;;;;;;;0.10;0.10;;;;;;;;;;5070796;28;20020;-86
2022/07/03 01:57:43;;;;;;;0.10;0.10;;;;;;;;;;5072113;28;20487;-86
2022/07/03 02:00:10;;;;;;;0.10;0.10;;;;;;;;;;5069636;28;20090;-86
2022/07/03 02:02:40;;;;;;;0.10;0.10;;;;;;;;;;5071911;28;20373;-84
2022/07/03 02:05:11;;;;;;;0.10;0.10;;;;;;;;;;5070462;28;20021;-84
2022/07/03 02:07:41;;;;;;;0.10;0.10;;;;;;;;;;5070697;28;20040;-85
2022/07/03 02:10:08;;;;;;;0.10;0.10;;;;;;;;;;5070122;28;20119;-85
2022/07/03 02:12:40;;;;;;;0.10;0.10;;;;;;;;;;5070668;28;20032;-85
2022/07/03 02:15:07;;;;;;;0.00;0.00;;;;;;;;;;5071012;28;20074;-85
2022/07/03 02:17:43;;;;;;;0.10;0.10;;;;;;;;;;5072044;28;20024;-83
2022/07/03 02:20:09;;;;;;;0.10;0.10;;;;;;;;;;5071742;28;20024;-86
2022/07/03 02:22:37;;;;;;;0.10;0.10;;;;;;;;;;5071479;28;20028;-84
2022/07/03 02:25:07;;;;;;;0.10;0.10;;;;;;;;;;5070762;28;20025;-85
2022/07/03 02:27:42;;;;;;;0.10;0.10;;;;;;;;;;5072052;28;20073;-85
2022/07/03 02:30:09;;;;;;;0.10;0.10;;;;;;;;;;5070389;28;20033;-86
2022/07/03 02:32:45;;;;;;;0.10;0.10;;;;;;;;;;5070548;28;20029;-82
2022/07/03 02:35:12;;;;;;;0.10;0.10;;;;;;;;;;5071272;28;20024;-84
2022/07/03 02:37:45;;;;;;;0.10;0.10;;;;;;;;;;5070197;28;20028;-84
2022/07/03 02:40:23;;;;;;;0.10;0.10;;;;;;;;;;5069671;28;20044;-84
2022/07/03 02:43:01;;;;;;;0.10;0.10;;;;;;;;;;5069652;28;20025;-85
2022/07/03 02:45:31;;;;;;;0.00;0.00;;;;;;;;;;5071366;28;20036;-84
2022/07/03 02:47:57;;;;;;;0.10;0.10;;;;;;;;;;5069827;28;20434;-85
2022/07/03 02:50:24;;;;;;;0.10;0.10;;;;;;;;;;5070642;28;20028;-85
2022/07/03 02:52:55;;;;;;;0.10;0.10;;;;;;;;;;5070958;28;20520;-85
2022/07/03 02:55:43;;;;;;;0.10;0.10;;;;;;;;;;5070924;28;20052;-85
2022/07/03 02:58:18;;;;;;;0.10;0.10;;;;;;;;;;5070110;28;20029;-86
2022/07/03 03:00:59;;;;;;;0.10;0.10;;;;;;;;;;5070279;28;20501;-85
2022/07/03 03:03:27;;;;;;;0.10;0.10;;;;;;;;;;5030139;28;20029;-85
2022/07/03 03:05:55;;;;;;;0.10;0.10;;;;;;;;;;5031867;28;20032;-87
2022/07/03 03:08:53;;;;;;;0.17;0.17;;;;;;;;;;5031361;28;20029;-87
2022/07/03 03:11:37;;;;;;;0.10;0.10;;;;;;;;;;5019222;28;20046;-85
2022/07/03 03:14:06;;;;;;;0.10;0.10;;;;;;;;;;5035630;28;20036;-85
2022/07/03 03:16:32;;;;;;;0.10;0.10;;;;;;;;;;5050042;28;20027;-85
2022/07/03 03:18:59;;;;;;;0.10;0.10;;;;;;;;;;5074802;28;20488;-85
2022/07/03 03:21:27;;;;;;;0.10;0.10;;;;;;;;;;5073612;28;20653;-85
2022/07/03 03:23:53;;;;;;;0.10;0.10;;;;;;;;;;5074914;28;20021;-84
2022/07/03 03:26:21;;;;;;;0.10;0.10;;;;;;;;;;5074660;28;20499;-85
2022/07/03 03:28:48;;;;;;;0.10;0.10;;;;;;;;;;5074948;28;20021;-85
2022/07/03 03:31:14;;;;;;;0.10;0.10;;;;;;;;;;5074487;28;20102;-85
2022/07/03 03:33:41;;;;;;;0.10;0.10;;;;;;;;;;5074632;28;20688;-85
2022/07/03 03:36:10;;;;;;;0.10;0.10;;;;;;;;;;5074355;28;20056;-84
2022/07/03 03:38:37;;;;;;;0.10;0.10;;;;;;;;;;5074505;28;20052;-82
2022/07/03 03:41:03;;;;;;;0.10;0.10;;;;;;;;;;5073451;28;20500;-83
2022/07/03 03:43:30;;;;;;;0.10;0.10;;;;;;;;;;5072854;28;20020;-83
2022/07/03 03:45:56;;;;;;;0.10;0.10;;;;;;;;;;5072906;28;20031;-83
2022/07/03 03:48:22;;;;;;;0.10;0.10;;;;;;;;;;5074127;28;20056;-85
2022/07/03 03:50:48;;;;;;;0.10;0.10;;;;;;;;;;5074085;28;20036;-84
2022/07/03 03:53:15;;;;;;;0.10;0.10;;;;;;;;;;5074087;28;20051;-84
2022/07/03 03:55:59;;;;;;;0.10;0.10;;;;;;;;;;5073934;28;20025;-86
2022/07/03 03:58:25;;;;;;;0.10;0.10;;;;;;;;;;5072696;28;20032;-84
2022/07/03 04:00:53;;;;;;;0.10;0.10;;;;;;;;;;5074307;28;20105;-85
2022/07/03 04:03:19;;;;;;;0.10;0.10;;;;;;;;;;5072498;28;20032;-85
2022/07/03 04:05:45;;;;;;;0.10;0.10;;;;;;;;;;5074382;28;20070;-85
2022/07/03 04:08:12;;;;;;;0.10;0.10;;;;;;;;;;5073730;28;20033;-84
2022/07/03 04:10:38;;;;;;;0.10;0.10;;;;;;;;;;5071806;28;20036;-83
2022/07/03 04:13:05;;;;;;;0.10;0.10;;;;;;;;;;5074050;28;20150;-84
2022/07/03 04:15:31;;;;;;;0.10;0.10;;;;;;;;;;5072868;28;20498;-85
2022/07/03 04:17:57;;;;;;;0.10;0.10;;;;;;;;;;5073827;28;20017;-85
2022/07/03 04:20:23;;;;;;;0.10;0.10;;;;;;;;;;5073675;28;20024;-85
2022/07/03 04:22:50;;;;;;;0.10;0.10;;;;;;;;;;5072160;28;20025;-85
2022/07/03 04:25:16;;;;;;;0.10;0.10;;;;;;;;;;5073225;28;20024;-84
2022/07/03 04:27:42;;;;;;;0.10;0.10;;;;;;;;;;5074233;28;20031;-88
2022/07/03 04:30:11;;;;;;;0.10;0.10;;;;;;;;;;5073786;28;20481;-84
2022/07/03 04:32:38;;;;;;;0.10;0.10;;;;;;;;;;5073785;28;20040;-82
2022/07/03 04:35:05;;;;;;;0.10;0.10;;;;;;;;;;5072609;28;20108;-84
2022/07/03 04:37:31;;;;;;;0.10;0.10;;;;;;;;;;5073825;28;20020;-84
2022/07/03 04:39:57;;;;;;;0.10;0.10;;;;;;;;;;5071614;28;20020;-85
2022/07/03 04:42:23;;;;;;;0.10;0.10;;;;;;;;;;5073072;28;20040;-84
2022/07/03 04:44:49;;;;;;;0.10;0.10;;;;;;;;;;5073469;28;20035;-83
2022/07/03 04:47:15;;;;;;;0.10;0.10;;;;;;;;;;5072949;28;20494;-84
2022/07/03 04:49:43;;;;;;;0.10;0.10;;;;;;;;;;5072627;28;20446;-83
2022/07/03 04:52:09;;;;;;;0.10;0.10;;;;;;;;;;5072879;28;20040;-82
2022/07/03 04:54:36;;;;;;;0.10;0.10;;;;;;;;;;5073376;28;20056;-87
2022/07/03 04:57:02;;;;;;;0.20;0.20;;;;;;;;;;5073788;28;20469;-87
2022/07/03 04:59:28;;;;;;;0.20;0.20;;;;;;;;;;5073480;28;20029;-87
2022/07/03 05:01:54;;;;;;;0.10;0.10;;;;;;;;;;5073293;28;20044;-88
2022/07/03 05:04:20;;;;;;;0.10;0.10;;;;;;;;;;5072464;28;20036;-88
2022/07/03 05:06:46;;;;;;;0.10;0.10;;;;;;;;;;5073939;28;20078;-89
2022/07/03 05:09:13;;;;;;;0.10;0.10;;;;;;;;;;5072058;28;20070;-86
2022/07/03 05:11:39;;;;;;;0.10;0.10;;;;;;;;;;5073654;28;20500;-87
2022/07/03 05:14:05;;;;;;;0.10;0.10;;;;;;;;;;5072211;28;20020;-85
2022/07/03 05:16:32;;;;;;;0.10;0.10;;;;;;;;;;5073781;28;20028;-92
2022/07/03 05:18:58;;;;;;;0.10;0.10;;;;;;;;;;5073431;28;20032;-90
2022/07/03 05:21:24;;;;;;;0.10;0.10;;;;;;;;;;5072367;28;20101;-91
2022/07/03 05:23:50;;;;;;;0.10;0.10;;;;;;;;;;5072394;28;20369;-93
2022/07/03 05:26:16;;;;;;;0.10;0.10;;;;;;;;;;5072754;28;20078;-92
2022/07/03 05:28:42;;;;;;;0.08;0.08;;;;;;;;;;5074125;28;20020;-95
2022/07/03 05:31:08;;;;;;;0.10;0.10;;;;;;;;;;5071772;28;20071;-94
2022/07/03 05:33:34;;;;;;;0.10;0.10;;;;;;;;;;5072530;28;20025;-91
2022/07/03 05:36:00;;;;;;;0.10;0.10;;;;;;;;;;5073092;28;20024;-93
2022/07/03 05:41:11;;;;;;;0.10;0.10;;;;;;;;;;5073074;28;20060;-88
2022/07/03 05:43:38;;;;;;;0.10;0.10;;;;;;;;;;5072881;28;20114;-85
2022/07/03 05:46:04;;;;;;;0.10;0.10;;;;;;;;;;5072975;28;20035;-90
2022/07/03 05:48:30;;;;;;;0.10;0.10;;;;;;;;;;5072711;28;20098;-85
2022/07/03 05:50:56;;;;;;;0.10;0.10;;;;;;;;;;5072089;28;20048;-87
2022/07/03 05:53:22;;;;;;;0.10;0.10;;;;;;;;;;5070790;28;20073;-86
2022/07/03 05:55:48;;;;;;;0.10;0.10;;;;;;;;;;5072408;28;20487;-87
2022/07/03 05:58:14;;;;;;;0.10;0.10;;;;;;;;;;5071457;28;20029;-84
2022/07/03 06:00:40;;;;;;;0.10;0.10;;;;;;;;;;5070662;28;20052;-85
2022/07/03 06:03:06;;;;;;;0.10;0.10;;;;;;;;;;5071744;28;20392;-85
2022/07/03 06:05:33;;;;;;;0.10;0.10;;;;;;;;;;5072211;28;20027;-85
2022/07/03 06:07:59;;;;;;;0.10;0.10;;;;;;;;;;5072041;28;20020;-85
2022/07/03 06:10:25;;;;;;;0.10;0.10;;;;;;;;;;5071930;28;20490;-87
2022/07/03 06:12:52;;;;;;;0.10;0.10;;;;;;;;;;5071905;28;20025;-84
2022/07/03 06:15:18;;;;;;;0.10;0.10;;;;;;;;;;5071779;28;20388;-87
2022/07/03 06:17:44;;;;;;;0.10;0.10;;;;;;;;;;5072387;28;20025;-88
2022/07/03 06:20:10;;;;;;;0.10;0.10;;;;;;;;;;5071723;28;20480;-88
2022/07/03 06:22:36;;;;;;;0.10;0.10;;;;;;;;;;5072186;28;20050;-86
2022/07/03 06:25:02;;;;;;;0.10;0.10;;;;;;;;;;5071041;28;20476;-89
2022/07/03 06:27:28;;;;;;;0.10;0.10;;;;;;;;;;5071220;28;20074;-85
2022/07/03 06:29:54;;;;;;;0.10;0.10;;;;;;;;;;5071638;28;20020;-85
2022/07/03 06:32:20;;;;;;;0.03;0.03;;;;;;;;;;5071812;28;20040;-85
2022/07/03 06:34:47;;;;;;;0.10;0.10;;;;;;;;;;5071057;28;20047;-84
2022/07/03 06:37:13;;;;;;;0.10;0.10;;;;;;;;;;5071190;28;20057;-83
2022/07/03 06:39:39;;;;;;;0.10;0.10;;;;;;;;;;5070373;28;20392;-84
2022/07/03 06:42:05;;;;;;;0.10;0.10;;;;;;;;;;5071231;28;20024;-80
2022/07/03 06:44:31;;;;;;;0.10;0.10;;;;;;;;;;5070515;28;20067;-84
2022/07/03 06:46:57;;;;;;;0.10;0.10;;;;;;;;;;5071250;28;20024;-85
2022/07/03 06:49:24;;;;;;;0.10;0.10;;;;;;;;;;5071177;28;20025;-84
2022/07/03 06:51:50;;;;;;;0.10;0.10;;;;;;;;;;5070316;28;20040;-83
2022/07/03 06:54:16;;;;;;;0.10;0.10;;;;;;;;;;5069684;28;20373;-82
2022/07/03 06:56:42;;;;;;;0.10;0.10;;;;;;;;;;5071160;28;20469;-82
2022/07/03 06:59:08;;;;;;;0.10;0.10;;;;;;;;;;5061961;28;20112;-84
2022/07/03 07:01:35;;;;;;;0.10;0.10;;;;;;;;;;5048955;28;20036;-83
2022/07/03 07:04:02;;;;;;;0.10;0.10;;;;;;;;;;5052099;28;20044;-83
2022/07/03 07:06:28;;;;;;;0.10;0.10;;;;;;;;;;5049520;28;20036;-82
2022/07/03 07:08:54;;;;;;;0.10;0.10;;;;;;;;;;5050221;28;20088;-81
2022/07/03 07:11:20;;;;;;;0.10;0.10;;;;;;;;;;5049967;28;20116;-82
2022/07/03 07:13:46;;;;;;;0.10;0.10;;;;;;;;;;5049833;28;20411;-81
2022/07/03 07:16:12;;;;;;;0.10;0.10;;;;;;;;;;5050283;28;20385;-84
2022/07/03 07:18:40;;;;;;;0.10;0.10;;;;;;;;;;5049408;28;20028;-81
2022/07/03 07:21:06;;;;;;;0.10;0.10;;;;;;;;;;5051390;28;20538;-81
2022/07/03 07:23:32;;;;;;;0.10;0.10;;;;;;;;;;5050909;28;20092;-86
2022/07/03 07:25:59;;;;;;;0.10;0.10;;;;;;;;;;5050689;28;20021;-82
2022/07/03 07:28:25;;;;;;;0.10;0.10;;;;;;;;;;5049809;28;20382;-87
2022/07/03 07:30:54;;;;;;;0.10;0.10;;;;;;;;;;5049029;28;20472;-87
2022/07/03 07:33:20;;;;;;;0.10;0.10;;;;;;;;;;5057605;28;20017;-85
2022/07/03 07:35:46;;;;;;;0.10;0.10;;;;;;;;;;5063134;28;20103;-84
2022/07/03 07:38:12;;;;;;;0.10;0.10;;;;;;;;;;5072156;28;20544;-84
2022/07/03 07:40:38;;;;;;;0.10;0.10;;;;;;;;;;5051529;28;20033;-84
2022/07/03 07:43:04;;;;;;;0.10;0.10;;;;;;;;;;5069148;28;20492;-86
2022/07/03 07:45:31;;;;;;;0.10;0.10;;;;;;;;;;5060050;28;20054;-85
2022/07/03 07:47:57;;;;;;;0.10;0.10;;;;;;;;;;5069339;28;20020;-88
2022/07/03 07:50:23;;;;;;;0.10;0.10;;;;;;;;;;5067150;28;20040;-86
2022/07/03 07:52:49;;;;;;;0.10;0.10;;;;;;;;;;5048266;28;20057;-85
2022/07/03 07:55:15;;;;;;;0.10;0.10;;;;;;;;;;5057625;28;20104;-85
2022/07/03 07:57:41;;;;;;;0.10;0.10;;;;;;;;;;5058682;28;20029;-84
2022/07/03 08:00:11;;;;;;;0.10;0.10;;;;;;;;;;5052227;28;20392;-83
2022/07/03 08:05:38;;;;;;;0.10;0.10;;;;;;;;;;5072586;28;20124;-83
2022/07/03 08:08:04;;;;;;;0.10;0.10;;;;;;;;;;5072111;28;20048;-84
2022/07/03 08:10:30;;;;;;;0.00;0.00;;;;;;;;;;5071355;28;20052;-82
2022/07/03 08:12:56;;;;;;;0.03;0.03;;;;;;;;;;5073667;28;20094;-88
2022/07/03 08:15:22;;;;;;;0.03;0.03;;;;;;;;;;5073914;28;20020;-84
2022/07/03 08:17:48;;;;;;;0.10;0.10;;;;;;;;;;5073001;28;20025;-83
2022/07/03 08:20:14;;;;;;;0.10;0.10;;;;;;;;;;5073008;28;20025;-87
2022/07/03 08:22:39;;;;;;;0.00;0.00;;;;;;;;;;5073363;28;20105;-91
2022/07/03 08:25:06;;;;;;;0.05;0.05;;;;;;;;;;5071249;28;20029;-86
2022/07/03 08:27:31;;;;;;;0.10;0.10;;;;;;;;;;5072709;28;20035;-89
2022/07/03 08:29:57;;;;;;;0.00;0.00;;;;;;;;;;5073482;28;20028;-90
2022/07/03 08:32:23;;;;;;;0.10;0.10;;;;;;;;;;5074361;28;20025;-90
2022/07/03 08:34:49;;;;;;;0.10;0.10;;;;;;;;;;5074396;28;20024;-89
2022/07/03 08:37:16;;;;;;;0.10;0.10;;;;;;;;;;5073070;28;20024;-91
2022/07/03 08:39:42;;;;;;;0.10;0.10;;;;;;;;;;5073162;28;20016;-93
2022/07/03 08:42:08;;;;;;;0.10;0.10;;;;;;;;;;5072892;28;20028;-89
2022/07/03 08:44:36;;;;;;;0.10;0.10;;;;;;;;;;5073068;28;20119;-90
2022/07/03 08:47:03;;;;;;;0.10;0.10;;;;;;;;;;5060146;28;20021;-92
2022/07/03 08:49:30;;;;;;;0.10;0.10;;;;;;;;;;5052565;28;20111;-91
2022/07/03 08:51:56;;;;;;;0.10;0.10;;;;;;;;;;5053808;28;20413;-90
2022/07/03 08:54:22;;;;;;;0.05;0.05;;;;;;;;;;5052566;28;20025;-87
2022/07/03 08:56:48;;;;;;;0.10;0.10;;;;;;;;;;5053952;28;20040;-91
2022/07/03 08:59:14;;;;;;;0.10;0.10;;;;;;;;;;5053627;28;20032;-93
2022/07/03 09:01:44;;;;;;;0.10;0.10;;;;;;;;;;5052889;28;20472;-89
2022/07/03 09:04:14;;;;;;;0.10;0.10;;;;;;;;;;5053446;28;20155;-91
2022/07/03 09:06:41;;;;;;;0.10;0.10;;;;;;;;;;5053606;28;20029;-90
2022/07/03 09:09:08;;;;;;;0.10;0.10;;;;;;;;;;5053576;28;20465;-89
2022/07/03 09:11:35;;;;;;;0.10;0.10;;;;;;;;;;5053918;28;20488;-88
2022/07/03 09:14:02;;;;;;;0.05;0.05;;;;;;;;;;5053816;28;20071;-91
2022/07/03 09:16:28;;;;;;;0.10;0.10;;;;;;;;;;5053424;28;20065;-93
2022/07/03 09:18:54;;;;;;;0.10;0.10;;;;;;;;;;5053571;28;20021;-91
2022/07/03 09:21:20;;;;;;;0.10;0.10;;;;;;;;;;5053137;28;20107;-89
2022/07/03 09:23:47;;;;;;;0.10;0.10;;;;;;;;;;5052236;28;20068;-90
2022/07/03 09:26:17;;;;;;;0.10;0.10;;;;;;;;;;5063802;28;20503;-90
2022/07/03 09:28:45;;;;;;;0.10;0.10;;;;;;;;;;5074043;28;20056;-91
2022/07/03 09:31:22;;;;;;;0.10;0.10;;;;;;;;;;5072553;28;20035;-94
2022/07/03 09:33:50;;;;;;;0.10;0.10;;;;;;;;;;5072568;28;20032;-91
2022/07/03 09:36:16;;;;;;;0.10;0.10;;;;;;;;;;5073994;28;20028;-94
2022/07/03 09:38:45;;;;;;;0.10;0.10;;;;;;;;;;5074516;28;20017;-93
2022/07/03 09:41:11;;;;;;;0.10;0.10;;;;;;;;;;5072725;28;20036;-93
2022/07/03 09:43:41;;;;;;;0.10;0.10;;;;;;;;;;5073181;28;20100;-93
2022/07/03 09:46:07;;;;;;;0.10;0.10;;;;;;;;;;5073124;28;20028;-93
2022/07/03 09:48:41;;;;;;;0.10;0.10;;;;;;;;;;5073178;28;20028;-94
2022/07/03 09:51:25;;;;;;;0.10;0.10;;;;;;;;;;5071326;28;20041;-92
2022/07/03 09:53:58;;;;;;;0.10;0.10;;;;;;;;;;5073196;28;20024;-93
2022/07/03 09:56:25;;;;;;;0.03;0.03;;;;;;;;;;5071749;28;20056;-93
2022/07/03 09:59:03;;;;;;;0.10;0.10;;;;;;;;;;5073336;28;20469;-91
2022/07/03 10:01:29;;;;;;;0.10;0.10;;;;;;;;;;5072020;28;20032;-93
2022/07/03 10:03:56;;;;;;;0.10;0.10;;;;;;;;;;5073861;28;20027;-89
2022/07/03 10:06:22;;;;;;;0.10;0.10;;;;;;;;;;5072838;28;20086;-92
2022/07/03 10:08:50;;;;;;;0.10;0.10;;;;;;;;;;5071369;28;20491;-90
2022/07/03 10:11:16;;;;;;;0.10;0.10;;;;;;;;;;5071043;28;20040;-89
2022/07/03 10:13:42;;;;;;;0.10;0.10;;;;;;;;;;5072225;28;20078;-83
2022/07/03 10:16:08;;;;;;;0.10;0.10;;;;;;;;;;5071516;28;20036;-89
2022/07/03 10:18:38;;;;;;;0.00;0.00;;;;;;;;;;5072141;28;20029;-93
2022/07/03 10:21:06;;;;;;;0.10;0.10;;;;;;;;;;5072296;28;20485;-93
2022/07/03 10:23:32;;;;;;;0.10;0.10;;;;;;;;;;5072777;28;20042;-92
2022/07/03 10:25:58;;;;;;;0.10;0.10;;;;;;;;;;5072719;28;20556;-92
2022/07/03 10:28:24;;;;;;;0.10;0.10;;;;;;;;;;5071639;28;20036;-94
2022/07/03 10:30:50;;;;;;;0.00;0.00;;;;;;;;;;5071920;28;20041;-93
2022/07/03 10:33:17;;;;;;;0.10;0.10;;;;;;;;;;5071846;28;20024;-94
2022/07/03 10:35:44;;;;;;;0.10;0.10;;;;;;;;;;5073886;28;20424;-94
2022/07/03 10:38:16;;;;;;;0.10;0.10;;;;;;;;;;5076204;28;20051;-93
2022/07/03 10:46:34;;;;;;;0.10;0.10;;;;;;;;;;5090279;28;20056;-96
2022/07/03 10:49:05;;;;;;;0.10;0.10;;;;;;;;;;5090354;28;20012;-94
2022/07/03 10:51:32;;;;;;;0.10;0.10;;;;;;;;;;5089243;28;20043;-95
2022/07/03 10:54:14;;;;;;;0.10;0.10;;;;;;;;;;5081595;28;20488;-92
2022/07/03 10:57:03;;;;;;;0.03;0.03;;;;;;;;;;5076867;28;20025;-95
2022/07/03 10:59:32;;;;;;;0.10;0.10;;;;;;;;;;5071097;28;20090;-92
2022/07/03 11:02:18;;;;;;;0.10;0.10;;;;;;;;;;5075128;28;20029;-90
2022/07/03 11:04:59;;;;;;;0.10;0.10;;;;;;;;;;5074006;28;20021;-93
2022/07/03 11:07:28;;;;;;;0.10;0.10;;;;;;;;;;5070270;28;20511;-85
2022/07/03 11:10:06;;;;;;;0.10;0.10;;;;;;;;;;5070461;28;20117;-86
2022/07/03 11:13:04;;;;;;;0.10;0.10;;;;;;;;;;5070817;28;20115;-91
2022/07/03 11:15:33;;;;;;;0.10;0.10;;;;;;;;;;5060363;28;20374;-89
2022/07/03 11:18:11;;;;;;;0.10;0.10;;;;;;;;;;5070711;28;20067;-89
2022/07/03 11:20:40;;;;;;;0.10;0.10;;;;;;;;;;5070632;28;20388;-88
2022/07/03 11:23:12;;;;;;;0.10;0.10;;;;;;;;;;5070270;28;20059;-90
2022/07/03 11:25:39;;;;;;;0.10;0.10;;;;;;;;;;5070722;28;20033;-89
2022/07/03 11:28:06;;;;;;;0.10;0.10;;;;;;;;;;5071676;28;20095;-86
2022/07/03 11:30:32;;;;;;;0.10;0.10;;;;;;;;;;5072051;28;20541;-90
2022/07/03 11:32:59;;;;;;;0.10;0.10;;;;;;;;;;5071852;28;20092;-90
2022/07/03 11:35:46;;;;;;;0.10;0.10;;;;;;;;;;5074505;28;20037;-91
2022/07/03 11:38:12;;;;;;;0.10;0.10;;;;;;;;;;5074473;28;20071;-90
2022/07/03 11:40:40;;;;;;;0.10;0.10;;;;;;;;;;5074501;28;20039;-91
2022/07/03 11:43:06;;;;;;;0.10;0.10;;;;;;;;;;5074166;28;20383;-88
2022/07/03 11:45:32;;;;;;;0.10;0.10;;;;;;;;;;5075753;28;20085;-92
2022/07/03 11:47:58;;;;;;;0.10;0.10;;;;;;;;;;5074494;28;20025;-90
2022/07/03 11:50:40;;;;;;;0.20;0.20;;;;;;;;;;5074836;28;20078;-91
2022/07/03 11:53:16;;;;;;;0.10;0.10;;;;;;;;;;5073919;28;20020;-90
2022/07/03 11:56:12;;;;;;;0.10;0.10;;;;;;;;;;5075442;28;20035;-92
2022/07/03 11:58:48;;;;;;;0.10;0.10;;;;;;;;;;5069741;28;20043;-91
2022/07/03 12:01:26;;;;;;;0.10;0.10;;;;;;;;;;5074913;28;20020;-91
2022/07/03 12:03:52;;;;;;;0.10;0.10;;;;;;;;;;5074945;28;20028;-91
2022/07/03 12:06:19;;;;;;;0.10;0.10;;;;;;;;;;5073545;28;20031;-91
2022/07/03 12:08:48;;;;;;;0.10;0.10;;;;;;;;;;5073861;28;20021;-91
2022/07/03 12:11:15;;;;;;;0.10;0.10;;;;;;;;;;5073297;28;20098;-91
2022/07/03 12:13:41;;;;;;;0.10;0.10;;;;;;;;;;5073662;28;20365;-90
2022/07/03 12:16:12;;;;;;;0.10;0.10;;;;;;;;;;5074698;28;20086;-89
2022/07/03 12:18:46;;;;;;;0.10;0.10;;;;;;;;;;5074789;28;20039;-90
2022/07/03 12:21:12;;;;;;;0.10;0.10;;;;;;;;;;5073199;28;20039;-92
2022/07/03 12:23:46;;;;;;;0.10;0.10;;;;;;;;;;5073578;28;20028;-90
2022/07/03 12:26:12;;;;;;;0.10;0.10;;;;;;;;;;5074401;28;20047;-88
2022/07/03 12:28:38;;;;;;;0.10;0.10;;;;;;;;;;5073265;28;20119;-86
2022/07/03 12:31:05;;;;;;;0.10;0.10;;;;;;;;;;5074447;28;20098;-88
2022/07/03 12:33:35;;;;;;;0.10;0.10;;;;;;;;;;5074755;28;20048;-87
2022/07/03 12:36:04;;;;;;;0.10;0.10;;;;;;;;;;5073364;28;20020;-89
2022/07/03 12:38:30;;;;;;;0.00;0.00;;;;;;;;;;5073283;28;20388;-87
2022/07/03 12:41:06;;;;;;;0.10;0.10;;;;;;;;;;5072918;28;20035;-87
2022/07/03 12:43:42;;;;;;;0.10;0.10;;;;;;;;;;5074283;28;20025;-92
2022/07/03 12:46:18;;;;;;;0.10;0.10;;;;;;;;;;5072922;28;20033;-91
2022/07/03 12:48:48;;;;;;;0.10;0.10;;;;;;;;;;5074266;28;20035;-88
2022/07/03 12:51:14;;;;;;;0.10;0.10;;;;;;;;;;5072558;28;20033;-90
2022/07/03 12:53:41;;;;;;;0.10;0.10;;;;;;;;;;5072987;28;20031;-91
2022/07/03 12:56:08;;;;;;;0.10;0.10;;;;;;;;;;5073857;28;20024;-90
2022/07/03 13:01:26;;;;;;;0.10;0.10;;;;;;;;;;5073991;28;20177;-90
2022/07/03 13:03:52;;;;;;;0.10;0.10;;;;;;;;;;5072828;28;20085;-89
2022/07/03 13:06:20;;;;;;;0.10;0.10;;;;;;;;;;5073805;28;20035;-90
2022/07/03 13:08:49;;;;;;;0.10;0.10;;;;;;;;;;5072698;28;20043;-89
2022/07/03 13:11:25;;;;;;;0.10;0.10;;;;;;;;;;5073583;28;20064;-91
2022/07/03 13:13:51;;;;;;;0.10;0.10;;;;;;;;;;5072645;28;20031;-90
2022/07/03 13:16:26;;;;;;;0.10;0.10;;;;;;;;;;5072511;28;20025;-93
2022/07/03 13:18:59;;;;;;;0.10;0.10;;;;;;;;;;5072525;28;20024;-93
2022/07/03 13:21:25;;;;;;;0.10;0.10;;;;;;;;;;5072035;28;20123;-91
2022/07/03 13:23:51;;;;;;;0.10;0.10;;;;;;;;;;5072282;28;20028;-89
2022/07/03 13:26:18;;;;;;;0.10;0.10;;;;;;;;;;5072012;28;20031;-90
2022/07/03 13:28:44;;;;;;;0.00;0.00;;;;;;;;;;5071792;28;20515;-89
2022/07/03 13:31:10;;;;;;;0.00;0.00;;;;;;;;;;5071531;28;20029;-88
2022/07/03 13:33:36;;;;;;;0.10;0.10;;;;;;;;;;5071504;28;20567;-85
2022/07/03 13:36:02;;;;;;;0.10;0.10;;;;;;;;;;5073109;28;20032;-89
2022/07/03 13:38:29;;;;;;;0.10;0.10;;;;;;;;;;5071556;28;20036;-90
2022/07/03 13:40:55;;;;;;;0.10;0.10;;;;;;;;;;5071909;28;20163;-87
2022/07/03 13:43:21;;;;;;;0.10;0.10;;;;;;;;;;5071774;28;20116;-87
2022/07/03 13:45:47;;;;;;;0.10;0.10;;;;;;;;;;5073048;28;20480;-85
2022/07/03 13:48:13;;;;;;;0.10;0.10;;;;;;;;;;5071320;28;20020;-85
2022/07/03 13:50:40;;;;;;;0.10;0.10;;;;;;;;;;5072269;28;20115;-88
2022/07/03 13:53:06;;;;;;;0.10;0.10;;;;;;;;;;5071111;28;20074;-85
2022/07/03 13:55:32;;;;;;;0.10;0.10;;;;;;;;;;5072054;28;20482;-85
2022/07/03 13:57:58;;;;;;;0.10;0.10;;;;;;;;;;5071258;28;20038;-86
2022/07/03 14:00:24;;;;;;;0.10;0.10;;;;;;;;;;5071067;28;20027;-87
2022/07/03 14:02:50;;;;;;;0.10;0.10;;;;;;;;;;5071149;28;20031;-88
2022/07/03 14:05:16;;;;;;;0.05;0.05;;;;;;;;;;5071358;28;20028;-89
2022/07/03 14:07:42;;;;;;;0.10;0.10;;;;;;;;;;5072536;28;20091;-89
2022/07/03 14:10:08;;;;;;;0.10;0.10;;;;;;;;;;5072139;28;20488;-87
2022/07/03 14:12:34;;;;;;;0.10;0.10;;;;;;;;;;5072866;28;20055;-88
2022/07/03 14:15:01;;;;;;;0.10;0.10;;;;;;;;;;5071593;28;20028;-89
2022/07/03 14:17:27;;;;;;;0.10;0.10;;;;;;;;;;5072383;28;20017;-88
2022/07/03 14:19:53;;;;;;;0.10;0.10;;;;;;;;;;5072405;28;20142;-86
2022/07/03 14:22:19;;;;;;;0.10;0.10;;;;;;;;;;5070835;28;20024;-87
2022/07/03 14:24:45;;;;;;;0.10;0.10;;;;;;;;;;5072233;28;20031;-89
2022/07/03 14:32:45;;;;;;;0.10;0.10;;;;;;;;;;5051291;28;20068;-93
2022/07/03 14:35:11;;;;;;;0.10;0.10;;;;;;;;;;5051375;28;20055;-94
2022/07/03 14:37:37;;;;;;;0.10;0.10;;;;;;;;;;5050732;28;20050;-90
2022/07/03 14:40:03;;;;;;;0.10;0.10;;;;;;;;;;5052273;28;20051;-93
2022/07/03 14:42:29;;;;;;;0.10;0.10;;;;;;;;;;5051656;28;20021;-91
2022/07/03 14:44:55;;;;;;;0.10;0.10;;;;;;;;;;5050890;28;20082;-91
2022/07/03 14:47:21;;;;;;;0.10;0.10;;;;;;;;;;5051552;28;20116;-92
2022/07/03 14:49:47;;;;;;;0.10;0.10;;;;;;;;;;5051744;28;20032;-92
2022/07/03 14:52:13;;;;;;;0.10;0.10;;;;;;;;;;5055095;28;20044;-94
2022/07/03 14:54:41;;;;;;;0.10;0.10;;;;;;;;;;5057719;28;20096;-90
2022/07/03 14:57:12;;;;;;;0.10;0.10;;;;;;;;;;5056672;28;20123;-83
2022/07/03 14:59:47;;;;;;;0.10;0.10;;;;;;;;;;5054244;28;20039;-93
2022/07/03 15:02:23;;;;;;;0.10;0.10;;;;;;;;;;5051239;28;20112;-91
2022/07/03 15:04:55;;;;;;;0.10;0.10;;;;;;;;;;5043821;28;20017;-87
2022/07/03 15:07:22;;;;;;;0.10;0.10;;;;;;;;;;5054042;28;20029;-85
2022/07/03 15:09:59;;;;;;;0.10;0.10;;;;;;;;;;5054469;28;20013;-80